Northfork, WV (24868)

8:00 PM EDT on August 29, 2016 (GMT -0400)
Parkview Heights | | Change Station

Elev 2402 ft 37.24 °N, 81.28 °W | Updated 11 seconds ago

Partly Cloudy
Partly Cloudy
74.1 °F
Feels Like 75 °F
N
0.0
Wind Variable Wind from North
Gusts 0.0 mph

Today
High -- | Low -- °F
--% Chance of Precip.
Yesterday
High -- | Low -- °F
Precip. -- in
Pressure 30.15 in
Visibility 10.0 miles
Clouds Few 5500 ft
Heat Index 75 °F
Dew Point 67 °F
Humidity 79%
Rainfall 0.00 in
Snow Depth Not available.
6:54 AM 7:58 PM
Waning Crescent, 6% visible
METAR KBLF 292352Z AUTO 09003KT 10SM FEW055 22/17 A3025 RMK AO2 SLP210 T02170172 10283 20217 53003
Pressure 30.15 in
Visibility 10.0 miles
Clouds Few 5500 ft
Heat Index 75 °F
Dew Point 67 °F
Humidity 79%
Rainfall 0.00 in
Snow Depth Not available.
6:54 AM 7:58 PM
Waning Crescent, 6% visible
METAR KBLF 292352Z AUTO 09003KT 10SM FEW055 22/17 A3025 RMK AO2 SLP210 T02170172 10283 20217 53003

10-Day Weather Forecast

Almanac

Astronomy

Aug. 29, 2016 Rise Set
Actual Time
Civil Twilight
Nautical Twilight
Astronomical Twilight
Moon
Length of Visible Light
Length of Day
Tomorrow will be .
, % of the Moon is Illuminated

Today's Extremes

State Highs State Lows

Community

WunderPhotos

Upload Photos

1,935,695 photos uploaded!

WunderBlog® & News

Nearby

Air Quality

  Air Quality AQ Index Pollutant
Not available.

Snow Depth

Station Depth Elevation

Earthquake Activity

City Distance Mag. Time & Date
Minimum magnitude displayed is 2.5.

Coastal Water Temperatures

Place Temperature

Stations

Nearby Weather Stations

Station Location Temp. Windchill Dew Point Humidity Wind Precip. Elev Updated Type
                   

Watches & Warnings

There are currently no watches in effect.